ADDS METAR Data INFO
IDs: Format: Raw Decoded Include TAF

Data at: 0344 UTC 20 Feb 2018

KMAF 200253Z 18017G22KT 10SM CLR 20/07 A2973 RMK AO2 SLP032 T02000067 51006 $
KMAF 200153Z 19015G22KT 10SM CLR 20/09 A2972 RMK AO2 SLP030 T02000089 $
KMAF 200053Z 18014G23KT 10SM CLR 21/09 A2972 RMK AO2 PK WND 18027/0021 SLP031 T02060089 $
KMAF 192353Z AUTO 19017G26KT 10SM CLR 23/04 A2970 RMK AO2 PK WND 20030/2320 SLP023 T02280044 10256 20217 55006 $
KMAF 192253Z 19017G28KT 10SM SCT110 23/03 A2969 RMK AO2 PK WND 18034/2220 SLP017 T02330033
KMAF 192153Z 21025G32KT 10SM BKN110 24/02 A2972 RMK AO2 PK WND 20032/2152 SLP026 T02440017
KMAF 192053Z 22017G23KT 10SM CLR 25/04 A2972 RMK AO2 PK WND 19028/2023 SLP027 T02500039 57028
KMAF 191953Z 19013KT 10SM CLR 23/08 A2976 RMK AO2 SLP041 T02330083
KMAF 191853Z 22012KT 10SM CLR 22/11 A2978 RMK AO2 SLP049 T02220106
KMAF 191753Z 22009G15KT 10SM CLR 22/11 A2982 RMK AO2 SLP061 T02220106 10222 20144 58009
KMAF 191653Z 20010KT 7SM CLR 19/14 A2984 RMK AO2 SLP071 T01890139
KMAF 191553Z 21010KT 5SM HZ CLR 17/14 A2985 RMK AO2 SLP075 T01720144
KMAF 191538Z 20007KT 4SM BR CLR 16/14 A2985 RMK AO2 T01610144
KMAF 191506Z 19010KT 4SM BR BKN005 16/14 A2984 RMK AO2 T01560139
KMAF 191503Z 19008KT 4SM BR FEW005 16/14 A2984 RMK AO2 T01560139
KMAF 191453Z 20006KT 3SM BR CLR 16/14 A2984 RMK AO2 SLP075 T01560139 53011
KMAF 191353Z 19006KT 4SM BR CLR 14/13 A2982 RMK AO2 SLP069 T01440128
KMAF 191253Z 18010KT 7SM CLR 15/13 A2981 RMK AO2 SLP064 T01500128
KMAF 191153Z AUTO 19008KT 7SM CLR 15/12 A2981 RMK AO2 SLP062 70002 T01500122 10167 20139 53007
KMAF 191053Z AUTO 18007KT 4SM BR CLR 15/13 A2979 RMK AO2 SLP053 T01500133
KMAF 191022Z AUTO 18010KT 3SM BR SCT004 14/13 A2980 RMK AO2 T01440133
KMAF 190953Z AUTO 18007KT 3SM BR CLR 14/13 A2979 RMK AO2 SLP050 T01440133
KMAF 190853Z AUTO 21011KT 5SM BR CLR 16/14 A2979 RMK AO2 SLP049 T01560139 56006
KMAF 190753Z AUTO 21006KT 3SM BR CLR 15/14 A2979 RMK AO2 SLP051 T01500139
KMAF 190743Z AUTO 23006KT 3SM BR CLR 15/13 A2980 RMK AO2 T01500133
KMAF 190734Z AUTO 24004KT 2 1/2SM BR FEW100 14/13 A2980 RMK AO2 T01440133
KMAF 190653Z AUTO 23004KT 4SM BR BKN110 16/14 A2979 RMK AO2 SLP052 T01610139
KMAF 190553Z AUTO 18011KT 5SM BR BKN095 17/14 A2981 RMK AO2 SLP057 60000 T01670144 10194 20167 402610083 58008
KMAF 190453Z 18010KT 6SM BR SCT009 BKN080 17/14 A2983 RMK AO2 SLP066 T01670144
KMAF 190424Z 18012KT 7SM BKN009 BKN085 18/14 A2983 RMK AO2 T01830144
KMAF 190353Z 17010KT 7SM SCT085 17/14 A2983 RMK AO2 SLP071 T01720144
KMAF 190253Z 17015KT 8SM FEW100 17/14 A2983 RMK AO2 SLP075 60000 T01720144 56001
KMAF 190153Z 17017KT 9SM BKN085 BKN120 18/14 A2984 RMK AO2 LTG DSNT E SLP076 T01780144
KMAF 190126Z 17015G25KT 9SM BKN085 18/15 A2983 RMK AO2 LTG DSNT E AND SE T01780150
KMAF 190111Z 16016KT 9SM VCTS SCT085 SCT120 18/14 A2982 RMK AO2 LTG DSNT SE T01780144
KMAF 190053Z 17017KT 10SM OVC095 18/14 A2983 RMK AO2 RAE04 SLP073 P0000 T01830144
KMAF 182353Z 18017G24KT 4SM -RA FEW026 BKN075 OVC100 19/14 A2984 RMK AO2 LTG DSNT SE AND S RAB48 SLP075 P0002 60002 T01940144 10261 20194 55005
KMAF 182253Z 17017KT 9SM BKN110 22/13 A2981 RMK AO2 PK WND 16028/2212 SLP064 T02220133
KMAF 182153Z 18017KT 10SM CLR 25/12 A2982 RMK AO2 PK WND 20027/2055 SLP067 T02500122
KMAF 182053Z 18018G28KT 10SM CLR 26/11 A2985 RMK AO2 PK WND 18029/2020 SLP076 T02560111 56039
KMAF 181953Z 18019G24KT 10SM CLR 25/12 A2989 RMK AO2 PK WND 17028/1913 SLP087 T02500117
KMAF 181853Z 19019G25KT 10SM CLR 23/12 A2994 RMK AO2 PK WND 21028/1831 SLP107 T02330122
KMAF 181753Z 20021G26KT 10SM CLR 22/12 A2998 RMK AO2 PK WND 21029/1736 SLP121 T02220122 10222 20100 58018
KMAF 181653Z 19022G27KT 9SM CLR 20/13 A3000 RMK AO2 PK WND 20027/1647 SLP131 T02000128
KMAF 181633Z 20017G23KT 10SM SCT012 19/13 A3000 RMK AO2 T01890128
KMAF 181553Z 18011KT 10SM OVC011 16/11 A3002 RMK AO2 SLP140 T01610106